GMMT weather

Tit Mellil Airport
Casablanca, Casablanca Province, Morocco

Public forecast

Using degrees Celsius for public forecast. Weather courtesy of forecast.io.

Current aviation weather report (METAR) for Tit Mellil Airport

Report is more than 6 hours old.

Retrieved 2017/09/24 06:00 UTC (2 years ago):

GMMT 240600Z 12006KT 9999 SCT017 26/21 Q1018 NOSIG

Closest aviation forecast (TAF) to Tit Mellil Airport

Closest forecast is Mohammed V International Airport, 15.2 nm (28.1 km) SSW. Retrieved 2019-12-06 00:38 UTC (5 hours ago):

TAF GMMN 052300Z 0600/0706 06003KT 9999 FEW020 PROB40 TEMPO 0600/0607 1500 BR BKN004 BECMG 0612/0616 34012KT BECMG 0620/0624 16004KT BKN008 PROB30 0702/0706 0600 FG BKN002